Veter Od: 25-09-2020 00:00 Do: 26-09-2020 13:59 Opozorilo za: Veter Stopnja: Rumena info button

METAR v bližini

 

LIPQ - Ronchi Legionari, Italy
Oddaljenost od postaje: JZ 35km
Podatki zajeti: 25/09/2020 09:20
Oblačno
Oblačno
 Veter iz smeri V
Veter: V 7 km/h
Temperatura: 17°C
Temp. rosišča: 17°C
Vlažnost: 100%
Tlak: 998 hPa
Oblačnost: Oblačno
Podrobnosti o oblakih: Oblačno 427 m
2020/09/25 07:20 LIPQ 250720Z AUTO 10004KT 050V130 //// // OVC014/// 17/17 Q0998
LIVT - Trieste, Italy
Oddaljenost od postaje: J 49km
Podatki zajeti: 25/09/2020 08:55
Oblačno
Oblačno
 Veter iz smeri spremenljiv
Veter: spremenljiv 0 km/h
Temperatura: 19°C
Temp. rosišča: 17°C
Vlažnost: 88%
Tlak: 999 hPa
Oblačnost: Oblačno
Vidljivost: 10 km
Podrobnosti o oblakih: Oblačno 762 m
2020/09/25 06:55 LIVT 250655Z /////KT 9999 OVC025 19/17 Q0999 RMK OVC QUK 1 QUL 0 VIS MAR 15 KM VIS MIN 9999
 
LIVO - Tarvisio, Italy
Oddaljenost od postaje: SSZ 49km
Podatki zajeti: 25/09/2020 08:55
Oblačno
Oblačno
 Veter iz smeri calm
Veter: Tišina
Temperatura: 12°C
Temp. rosišča: 11°C
Vlažnost: 94%
Tlak: 1000 hPa
Oblačnost: Oblačno
Vidljivost: 10 km
Podrobnosti o oblakih: Oblačno 610 m
2020/09/25 06:55 LIVO 250655Z 00000KT 9999 OVC020 12/11 Q1000 RMK OVC VIS MIN 9999
LIPI - Rivolto (it-Afb), Italy
Oddaljenost od postaje: ZJZ 57km
Podatki zajeti: 25/09/2020 08:55
Delno oblačno
Delno oblačno
 Veter iz smeri SV
Veter: SV 7 km/h
Temperatura: 17°C
Temp. rosišča: 14°C
Vlažnost: 83%
Tlak: 998 hPa
Oblačnost: Delno oblačno
Vidljivost: 10 km
Podrobnosti o oblakih: Delno oblačno 457 m
Delno oblačno 1067 m
2020/09/25 06:55 LIPI 250655Z 04004KT 9999 SCT015 SCT035 17/14 Q0998 RMK OVC VIS MIN 9999 WIND THR06 06003KT WIND THR24 06004KT BLU
 
LJLJ - Ljubljana/Brnik, Slovenia
Oddaljenost od postaje: VSV 59km
Podatki zajeti: 25/09/2020 09:30
Dežuje, Oblačno
Dežuje, Oblačno
 Veter iz smeri spremenljiv
Veter: spremenljiv 4 km/h
Temperatura: 15°C
Temp. rosišča: 15°C
Vlažnost: 100%
Tlak: 999 hPa
Stanje: Dežuje
Oblačnost: Oblačno
Vidljivost: 8 km
Podrobnosti o oblakih: Rahlo oblačno 152 m
Delno oblačno 305 m
Pretežno oblačno 762 m
Oblačno 1219 m
2020/09/25 07:30 LJLJ 250730Z VRB02KT 8000 SHRA FEW005 SCT010 BKN025TCU OVC040 15/15 Q0999 NOSIG
LJPZ - Portoroz, Slovenia
Oddaljenost od postaje: J 68km
Podatki zajeti: 25/09/2020 09:30
Pretežno oblačno
Pretežno oblačno
 Veter iz smeri JV
Veter: JV 15 km/h
Temperatura: 21°C
Temp. rosišča: 18°C
Vlažnost: 83%
Tlak: 998 hPa
Oblačnost: Pretežno oblačno
Vidljivost: 10 km
Podrobnosti o oblakih: Rahlo oblačno 610 m
Delno oblačno 1219 m
Pretežno oblačno 2438 m
2020/09/25 07:30 LJPZ 250730Z 13008KT 9999 FEW020 SCT040 BKN080 21/18 Q0998
 
LOWK - Klagenfurt(Civ/M, Austria
Oddaljenost od postaje: SV 78km
Podatki zajeti: 25/09/2020 09:20
Pretežno oblačno
Pretežno oblačno
 Veter iz smeri V
Veter: V 6 km/h
Temperatura: 16°C
Temp. rosišča: 14°C
Vlažnost: 88%
Tlak: 999 hPa
Oblačnost: Pretežno oblačno
Vidljivost: 10 km
Podrobnosti o oblakih: Rahlo oblačno 91 m
Delno oblačno 213 m
Pretežno oblačno 1676 m
2020/09/25 07:20 LOWK 250720Z 09003KT 050V140 9999 FEW003 SCT007 BKN055 16/14 Q0999 NOSIG
LIYW - Aviano (usaf), Italy
Oddaljenost od postaje: Z 86km
Podatki zajeti: 20/10/2015 15:58
Ni posodobljen
Jasno
Jasno
 Veter iz smeri JJZ
Veter: JJZ 6 km/h
Temperatura: 17°C
Temp. rosišča: 3°C
Vlažnost: 39%
Tlak: 1016.3 hPa
Oblačnost: Jasno
Vidljivost: 10 km
2015/10/20 13:58 LIYW 201358Z AUTO 21003KT 9999 CLR 17/03 A3001 RMK AO2 SLP167 T01660029
 
LIPA - Aviano (it/Us-Af, Italy
Oddaljenost od postaje: Z 89km
Podatki zajeti: 25/09/2020 08:55
Pretežno oblačno
Pretežno oblačno
 Veter iz smeri JZ
Veter: JZ 2 km/h
Temperatura: 17°C
Temp. rosišča: 15°C
Vlažnost: 88%
Tlak: 997 hPa
Oblačnost: Pretežno oblačno
Vidljivost: 10 km
Podrobnosti o oblakih: Rahlo oblačno 457 m
Pretežno oblačno 1676 m
2020/09/25 06:55 LIPA 250655Z 23001KT 9999 FEW015 BKN055 17/15 Q0997 RMK BKN VIS MIN 9999 WIND THR05 /////KT WIND THR23 /////KT A2947 BLU
LDRI - Rijeka/Omisalj, Croatia
Oddaljenost od postaje: JV 115km
Podatki zajeti: 25/09/2020 09:30
Pretežno oblačno
Pretežno oblačno
 Veter iz smeri JV
Veter: JV 17 km/h
Temperatura: 19°C
Temp. rosišča: 17°C
Vlažnost: 88%
Tlak: 1000 hPa
Oblačnost: Pretežno oblačno
Vidljivost: 10 km
Podrobnosti o oblakih: Rahlo oblačno 457 m
Pretežno oblačno 914 m
2020/09/25 07:30 LDRI 250730Z 13009KT 9999 FEW015 BKN030 19/17 Q1000
 
LIPZ - Venezia/Tessera, Italy
Oddaljenost od postaje: ZJZ 127km
Podatki zajeti: 25/09/2020 09:20
Rahlo oblačno
Rahlo oblačno
 Veter iz smeri SV
Veter: SV 6 km/h
Temperatura: 19°C
Temp. rosišča: 18°C
Vlažnost: 94%
Tlak: 997 hPa
Oblačnost: Rahlo oblačno
Vidljivost: 10 km
Podrobnosti o oblakih: Rahlo oblačno 183 m
2020/09/25 07:20 LIPZ 250720Z 04003KT 9999 FEW006 19/18 Q0997 NOSIG
LDPL - Pula, Croatia
Oddaljenost od postaje: J 133km
Podatki zajeti: 25/09/2020 09:30
Jasno
Jasno
 Veter iz smeri JJZ
Veter: JJZ 11 km/h
Temperatura: 21°C
Temp. rosišča: 18°C
Vlažnost: 83%
Tlak: 999 hPa
Stanje: Jasno
Vidljivost: večja od 10 km
2020/09/25 07:30 LDPL 250730Z 20006KT 150V250 CAVOK 21/18 Q0999 NOSIG
 
LIPS - Istrana (it-Afb), Italy
Oddaljenost od postaje: ZJZ 136km
Podatki zajeti: 25/09/2020 08:55
Pretežno oblačno
Pretežno oblačno
 Veter iz smeri calm
Veter: Tišina
Temperatura: 20°C
Temp. rosišča: 18°C
Vlažnost: 88%
Tlak: 999 hPa
Oblačnost: Pretežno oblačno
Vidljivost: 7 km
Podrobnosti o oblakih: Rahlo oblačno 305 m
Pretežno oblačno 457 m
2020/09/25 06:55 LIPS 250655Z 00000KT 7000 FEW010 BKN015 20/18 Q0999 RMK BKN VIS MIN 7000 WIND THR26 00000KT WIND THR08 00000KT WHT
LIVD - Dobbiaco, Italy
Oddaljenost od postaje: ZSZ 137km
Podatki zajeti: 25/09/2020 08:55
Oblačno
Oblačno
 Veter iz smeri spremenljiv
Veter: spremenljiv 0 km/h
Temperatura: 12°C
Temp. rosišča: 11°C
Vlažnost: 94%
Tlak: 1001 hPa
Oblačnost: Oblačno
Vidljivost: 8 km
Podrobnosti o oblakih: Oblačno 305 m
2020/09/25 06:55 LIVD 250655Z /////KT 8000 OVC010 12/11 Q1001 RERA RMK OVC VIS MIN 8000 GRN
 
LJCE - Cerklje, Slovenia
Oddaljenost od postaje: V 139km
Podatki zajeti: 25/09/2020 09:30
Pretežno oblačno
Pretežno oblačno
 Veter iz smeri VSV
Veter: VSV 7 km/h
Temperatura: 17°C
Temp. rosišča: 15°C
Vlažnost: 88%
Tlak: 1000 hPa
Oblačnost: Pretežno oblačno
Vidljivost: 10 km
Podrobnosti o oblakih: Rahlo oblačno 152 m
Delno oblačno 3353 m
Pretežno oblačno 6706 m
2020/09/25 07:30 LJCE 250730Z 06004KT 9999 FEW005 SCT110 BKN220 17/15 Q1000 RMK BLU
LOXZ - Zeltweg (mil), Austria
Oddaljenost od postaje: SSV 147km
Podatki zajeti: 25/09/2020 09:20
Rahlo dežuje, Pretežno oblačno
Rahlo dežuje, Pretežno oblačno
 Veter iz smeri spremenljiv
Veter: spremenljiv 4 km/h
Temperatura: 14°C
Temp. rosišča: 13°C
Vlažnost: 94%
Tlak: 1000 hPa
Stanje: Rahlo dežuje
Oblačnost: Pretežno oblačno
Vidljivost: 6 km
Podrobnosti o oblakih: Delno oblačno 61 m
Pretežno oblačno 152 m
Pretežno oblačno 1219 m
2020/09/25 07:20 LOXZ 250720Z VRB02KT 6000 -RA SCT002ST BKN005ST BKN040SC 14/13 Q1000 TEMPO RA FEW002 SCT007 BKN060
sucontract_SNC